Comby, Texas
Current Conditions -  °F | °C
As of 10:52 AM on Wednesday 22 Oct 2014 (Local Time) from KHRL Reporting Station
Overcast Overcast  
Wind Chill: 26°   Ceiling: 2800
Heat Index: 28°   Visibility: 10mi
Dew Point: 22°   Wind: 9mph
Humidity: 79%   Direction: 90°E
Pressure: 30.02"   Gusts: NA
Location:  26.2542°N, 97.7326°W
Report Text: KHRL 221552Z 09008KT 10SM BKN028 OVC036 26/22 A3002 RMK AO2 SLP164 P0001 T02610222
Loading
Personal Weather Stations






























Interactive Weather Map
Tropical Storm Tracking
New forecast layout! Learn more

10-Day Weather Forecast

Advertisements
Track Severe Weather on mobile